sensor_id;sensor_type;location;lat;lon;timestamp;P1;durP1;ratioP1;P2;durP2;ratioP2
75887;SDS011;64562;55.662;37.300;2022-11-12T00:00:06;4.50;;;2.03;;
75887;SDS011;64562;55.662;37.300;2022-11-12T00:02:33;2.88;;;1.75;;
75887;SDS011;64562;55.662;37.300;2022-11-12T00:04:59;4.75;;;2.22;;
75887;SDS011;64562;55.662;37.300;2022-11-12T00:07:26;3.53;;;2.03;;
75887;SDS011;64562;55.662;37.300;2022-11-12T00:09:53;5.40;;;2.10;;
75887;SDS011;64562;55.662;37.300;2022-11-12T00:12:19;4.63;;;1.80;;
75887;SDS011;64562;55.662;37.300;2022-11-12T00:14:47;5.10;;;2.25;;
75887;SDS011;64562;55.662;37.300;2022-11-12T00:17:14;3.47;;;1.60;;
75887;SDS011;64562;55.662;37.300;2022-11-12T00:19:40;2.97;;;1.63;;
75887;SDS011;64562;55.662;37.300;2022-11-12T00:22:07;5.13;;;2.53;;
75887;SDS011;64562;55.662;37.300;2022-11-12T00:24:34;4.82;;;1.88;;
75887;SDS011;64562;55.662;37.300;2022-11-12T00:27:00;4.82;;;2.00;;
75887;SDS011;64562;55.662;37.300;2022-11-12T00:29:27;3.55;;;1.60;;
75887;SDS011;64562;55.662;37.300;2022-11-12T00:31:55;4.03;;;1.70;;
75887;SDS011;64562;55.662;37.300;2022-11-12T00:34:21;2.35;;;1.60;;
75887;SDS011;64562;55.662;37.300;2022-11-12T00:36:48;2.58;;;1.65;;
75887;SDS011;64562;55.662;37.300;2022-11-12T00:39:15;3.78;;;1.98;;
75887;SDS011;64562;55.662;37.300;2022-11-12T00:41:41;3.63;;;1.50;;
75887;SDS011;64562;55.662;37.300;2022-11-12T00:44:08;3.58;;;1.73;;
75887;SDS011;64562;55.662;37.300;2022-11-12T00:46:34;3.88;;;1.92;;
75887;SDS011;64562;55.662;37.300;2022-11-12T00:49:02;3.42;;;1.60;;
75887;SDS011;64562;55.662;37.300;2022-11-12T00:51:29;2.55;;;1.40;;
75887;SDS011;64562;55.662;37.300;2022-11-12T00:53:56;2.53;;;1.40;;
75887;SDS011;64562;55.662;37.300;2022-11-12T00:56:22;4.10;;;2.40;;
75887;SDS011;64562;55.662;37.300;2022-11-12T00:58:49;4.68;;;1.98;;
75887;SDS011;64562;55.662;37.300;2022-11-12T01:01:15;3.70;;;1.85;;
75887;SDS011;64562;55.662;37.300;2022-11-12T01:03:42;3.72;;;1.95;;
75887;SDS011;64562;55.662;37.300;2022-11-12T01:06:11;3.17;;;1.80;;
75887;SDS011;64562;55.662;37.300;2022-11-12T01:08:38;3.70;;;1.70;;
75887;SDS011;64562;55.662;37.300;2022-11-12T01:11:06;3.90;;;1.92;;
75887;SDS011;64562;55.662;37.300;2022-11-12T01:13:32;3.10;;;1.65;;
75887;SDS011;64562;55.662;37.300;2022-11-12T01:16:03;2.90;;;1.50;;
75887;SDS011;64562;55.662;37.300;2022-11-12T01:18:29;4.93;;;1.92;;
75887;SDS011;64562;55.662;37.300;2022-11-12T01:20:58;3.60;;;1.40;;
75887;SDS011;64562;55.662;37.300;2022-11-12T01:23:26;2.65;;;1.75;;
75887;SDS011;64562;55.662;37.300;2022-11-12T01:25:53;2.40;;;1.38;;
75887;SDS011;64562;55.662;37.300;2022-11-12T01:28:19;3.13;;;1.63;;
75887;SDS011;64562;55.662;37.300;2022-11-12T01:30:46;2.58;;;1.30;;
75887;SDS011;64562;55.662;37.300;2022-11-12T01:33:13;1.85;;;1.20;;
75887;SDS011;64562;55.662;37.300;2022-11-12T01:35:39;1.58;;;1.25;;
75887;SDS011;64562;55.662;37.300;2022-11-12T01:38:06;2.85;;;1.67;;
75887;SDS011;64562;55.662;37.300;2022-11-12T01:40:34;2.05;;;1.50;;
75887;SDS011;64562;55.662;37.300;2022-11-12T01:43:00;2.83;;;1.63;;
75887;SDS011;64562;55.662;37.300;2022-11-12T01:45:27;2.00;;;1.50;;
75887;SDS011;64562;55.662;37.300;2022-11-12T01:47:54;2.45;;;1.50;;
75887;SDS011;64562;55.662;37.300;2022-11-12T01:50:23;1.85;;;1.20;;
75887;SDS011;64562;55.662;37.300;2022-11-12T01:52:51;2.15;;;1.30;;
75887;SDS011;64562;55.662;37.300;2022-11-12T01:55:21;2.97;;;1.58;;
75887;SDS011;64562;55.662;37.300;2022-11-12T01:57:51;2.40;;;1.25;;
75887;SDS011;64562;55.662;37.300;2022-11-12T02:00:18;3.53;;;1.60;;
75887;SDS011;64562;55.662;37.300;2022-11-12T02:02:46;2.45;;;1.60;;
75887;SDS011;64562;55.662;37.300;2022-11-12T02:05:15;1.75;;;1.38;;
75887;SDS011;64562;55.662;37.300;2022-11-12T02:07:42;2.33;;;1.58;;
75887;SDS011;64562;55.662;37.300;2022-11-12T02:10:11;2.67;;;1.35;;
75887;SDS011;64562;55.662;37.300;2022-11-12T02:12:38;2.85;;;1.33;;
75887;SDS011;64562;55.662;37.300;2022-11-12T02:15:24;1.90;;;1.38;;
75887;SDS011;64562;55.662;37.300;2022-11-12T02:17:50;2.00;;;1.50;;
75887;SDS011;64562;55.662;37.300;2022-11-12T02:20:18;2.58;;;1.60;;
75887;SDS011;64562;55.662;37.300;2022-11-12T02:22:46;2.75;;;1.48;;
75887;SDS011;64562;55.662;37.300;2022-11-12T02:25:13;2.10;;;1.42;;
75887;SDS011;64562;55.662;37.300;2022-11-12T02:27:42;2.30;;;1.60;;
75887;SDS011;64562;55.662;37.300;2022-11-12T02:30:09;4.45;;;1.60;;
75887;SDS011;64562;55.662;37.300;2022-11-12T02:32:36;3.75;;;1.80;;
75887;SDS011;64562;55.662;37.300;2022-11-12T02:35:03;2.20;;;1.50;;
75887;SDS011;64562;55.662;37.300;2022-11-12T02:37:29;2.28;;;1.40;;
75887;SDS011;64562;55.662;37.300;2022-11-12T02:39:57;2.75;;;1.35;;
75887;SDS011;64562;55.662;37.300;2022-11-12T02:42:24;2.72;;;1.30;;
75887;SDS011;64562;55.662;37.300;2022-11-12T02:44:51;1.83;;;1.38;;
75887;SDS011;64562;55.662;37.300;2022-11-12T02:47:18;2.53;;;1.63;;
75887;SDS011;64562;55.662;37.300;2022-11-12T02:49:44;1.95;;;1.30;;
75887;SDS011;64562;55.662;37.300;2022-11-12T02:52:11;2.20;;;1.17;;
75887;SDS011;64562;55.662;37.300;2022-11-12T02:54:37;2.30;;;1.40;;
75887;SDS011;64562;55.662;37.300;2022-11-12T02:57:05;3.08;;;1.40;;
75887;SDS011;64562;55.662;37.300;2022-11-12T02:59:32;2.30;;;1.40;;
75887;SDS011;64562;55.662;37.300;2022-11-12T03:01:58;3.33;;;1.30;;
75887;SDS011;64562;55.662;37.300;2022-11-12T03:04:25;1.90;;;1.48;;
75887;SDS011;64562;55.662;37.300;2022-11-12T03:06:52;2.70;;;1.55;;
75887;SDS011;64562;55.662;37.300;2022-11-12T03:09:18;2.00;;;1.13;;
75887;SDS011;64562;55.662;37.300;2022-11-12T03:11:45;2.33;;;1.40;;
75887;SDS011;64562;55.662;37.300;2022-11-12T03:14:13;1.70;;;1.33;;
75887;SDS011;64562;55.662;37.300;2022-11-12T03:16:39;3.20;;;1.52;;
75887;SDS011;64562;55.662;37.300;2022-11-12T03:19:06;2.05;;;1.35;;
75887;SDS011;64562;55.662;37.300;2022-11-12T03:21:33;2.40;;;1.33;;
75887;SDS011;64562;55.662;37.300;2022-11-12T03:23:59;1.55;;;1.15;;
75887;SDS011;64562;55.662;37.300;2022-11-12T03:26:26;2.28;;;1.33;;
75887;SDS011;64562;55.662;37.300;2022-11-12T03:28:53;2.45;;;1.23;;
75887;SDS011;64562;55.662;37.300;2022-11-12T03:31:21;2.22;;;1.40;;
75887;SDS011;64562;55.662;37.300;2022-11-12T03:33:47;2.03;;;1.40;;
75887;SDS011;64562;55.662;37.300;2022-11-12T03:36:14;1.30;;;1.00;;
75887;SDS011;64562;55.662;37.300;2022-11-12T03:38:41;1.67;;;1.42;;
75887;SDS011;64562;55.662;37.300;2022-11-12T03:41:07;1.63;;;1.23;;
75887;SDS011;64562;55.662;37.300;2022-11-12T03:43:34;1.92;;;1.30;;
75887;SDS011;64562;55.662;37.300;2022-11-12T03:46:01;1.77;;;1.40;;
75887;SDS011;64562;55.662;37.300;2022-11-12T03:48:29;1.88;;;1.45;;
75887;SDS011;64562;55.662;37.300;2022-11-12T03:50:56;2.28;;;1.30;;
75887;SDS011;64562;55.662;37.300;2022-11-12T03:53:22;1.58;;;1.17;;
75887;SDS011;64562;55.662;37.300;2022-11-12T03:55:49;1.90;;;1.27;;
75887;SDS011;64562;55.662;37.300;2022-11-12T03:58:16;2.25;;;1.30;;
75887;SDS011;64562;55.662;37.300;2022-11-12T04:00:42;2.83;;;1.38;;
75887;SDS011;64562;55.662;37.300;2022-11-12T04:03:09;1.25;;;1.15;;
75887;SDS011;64562;55.662;37.300;2022-11-12T04:05:37;1.80;;;1.33;;
75887;SDS011;64562;55.662;37.300;2022-11-12T04:08:21;1.98;;;1.30;;
75887;SDS011;64562;55.662;37.300;2022-11-12T04:11:06;1.70;;;1.30;;
75887;SDS011;64562;55.662;37.300;2022-11-12T04:13:33;2.85;;;1.55;;
75887;SDS011;64562;55.662;37.300;2022-11-12T04:16:02;2.85;;;1.20;;
75887;SDS011;64562;55.662;37.300;2022-11-12T04:18:47;2.45;;;1.15;;
75887;SDS011;64562;55.662;37.300;2022-11-12T04:21:45;1.58;;;1.15;;
75887;SDS011;64562;55.662;37.300;2022-11-12T04:24:21;2.55;;;1.20;;
75887;SDS011;64562;55.662;37.300;2022-11-12T04:27:05;1.88;;;1.13;;
75887;SDS011;64562;55.662;37.300;2022-11-12T04:29:32;2.15;;;1.10;;
75887;SDS011;64562;55.662;37.300;2022-11-12T04:32:16;1.90;;;1.35;;
75887;SDS011;64562;55.662;37.300;2022-11-12T04:34:43;2.33;;;1.30;;
75887;SDS011;64562;55.662;37.300;2022-11-12T04:37:11;1.77;;;0.90;;
75887;SDS011;64562;55.662;37.300;2022-11-12T04:39:38;1.60;;;1.05;;
75887;SDS011;64562;55.662;37.300;2022-11-12T04:42:04;1.40;;;1.25;;
75887;SDS011;64562;55.662;37.300;2022-11-12T04:44:48;1.98;;;1.33;;
75887;SDS011;64562;55.662;37.300;2022-11-12T04:47:31;1.20;;;1.10;;
75887;SDS011;64562;55.662;37.300;2022-11-12T04:49:59;1.75;;;1.33;;
75887;SDS011;64562;55.662;37.300;2022-11-12T04:52:27;2.65;;;1.27;;
75887;SDS011;64562;55.662;37.300;2022-11-12T04:54:54;1.63;;;1.00;;
75887;SDS011;64562;55.662;37.300;2022-11-12T04:57:21;1.10;;;0.90;;
75887;SDS011;64562;55.662;37.300;2022-11-12T04:59:48;1.48;;;1.13;;
75887;SDS011;64562;55.662;37.300;2022-11-12T05:02:14;2.30;;;1.20;;
75887;SDS011;64562;55.662;37.300;2022-11-12T05:04:41;1.67;;;1.30;;
75887;SDS011;64562;55.662;37.300;2022-11-12T05:07:08;2.40;;;1.30;;
75887;SDS011;64562;55.662;37.300;2022-11-12T05:09:36;1.95;;;1.10;;
75887;SDS011;64562;55.662;37.300;2022-11-12T05:12:03;1.30;;;1.05;;
75887;SDS011;64562;55.662;37.300;2022-11-12T05:14:30;1.42;;;0.93;;
75887;SDS011;64562;55.662;37.300;2022-11-12T05:16:56;1.20;;;0.90;;
75887;SDS011;64562;55.662;37.300;2022-11-12T05:19:23;1.50;;;1.08;;
75887;SDS011;64562;55.662;37.300;2022-11-12T05:21:50;1.63;;;0.90;;
75887;SDS011;64562;55.662;37.300;2022-11-12T05:24:32;1.60;;;1.20;;
75887;SDS011;64562;55.662;37.300;2022-11-12T05:27:01;1.27;;;1.00;;
75887;SDS011;64562;55.662;37.300;2022-11-12T05:29:27;2.15;;;0.93;;
75887;SDS011;64562;55.662;37.300;2022-11-12T05:31:54;1.48;;;0.93;;
75887;SDS011;64562;55.662;37.300;2022-11-12T05:34:21;1.73;;;1.10;;
75887;SDS011;64562;55.662;37.300;2022-11-12T05:36:47;1.45;;;1.10;;
75887;SDS011;64562;55.662;37.300;2022-11-12T05:39:14;1.27;;;1.17;;
75887;SDS011;64562;55.662;37.300;2022-11-12T05:41:41;1.40;;;1.00;;
75887;SDS011;64562;55.662;37.300;2022-11-12T05:44:09;3.00;;;1.10;;
75887;SDS011;64562;55.662;37.300;2022-11-12T05:46:35;1.60;;;1.00;;
75887;SDS011;64562;55.662;37.300;2022-11-12T05:49:02;1.27;;;0.98;;
75887;SDS011;64562;55.662;37.300;2022-11-12T05:51:29;2.38;;;1.08;;
75887;SDS011;64562;55.662;37.300;2022-11-12T05:53:55;1.88;;;0.88;;
75887;SDS011;64562;55.662;37.300;2022-11-12T05:56:22;1.20;;;0.90;;
75887;SDS011;64562;55.662;37.300;2022-11-12T05:58:48;1.13;;;0.90;;
75887;SDS011;64562;55.662;37.300;2022-11-12T06:01:16;1.40;;;1.00;;
75887;SDS011;64562;55.662;37.300;2022-11-12T06:03:43;1.45;;;0.95;;
75887;SDS011;64562;55.662;37.300;2022-11-12T06:06:09;2.13;;;0.82;;
75887;SDS011;64562;55.662;37.300;2022-11-12T06:08:36;1.20;;;0.90;;
75887;SDS011;64562;55.662;37.300;2022-11-12T06:11:03;1.60;;;1.00;;
75887;SDS011;64562;55.662;37.300;2022-11-12T06:13:29;1.85;;;1.00;;
75887;SDS011;64562;55.662;37.300;2022-11-12T06:15:56;2.00;;;1.10;;
75887;SDS011;64562;55.662;37.300;2022-11-12T06:18:24;1.23;;;0.85;;
75887;SDS011;64562;55.662;37.300;2022-11-12T06:20:51;2.38;;;0.88;;
75887;SDS011;64562;55.662;37.300;2022-11-12T06:23:31;2.63;;;0.90;;
75887;SDS011;64562;55.662;37.300;2022-11-12T06:25:58;2.88;;;1.10;;
75887;SDS011;64562;55.662;37.300;2022-11-12T06:28:25;3.15;;;1.05;;
75887;SDS011;64562;55.662;37.300;2022-11-12T06:30:51;2.45;;;1.00;;
75887;SDS011;64562;55.662;37.300;2022-11-12T06:33:18;1.05;;;0.70;;
75887;SDS011;64562;55.662;37.300;2022-11-12T06:35:46;3.25;;;1.05;;
75887;SDS011;64562;55.662;37.300;2022-11-12T06:38:13;2.67;;;1.10;;
75887;SDS011;64562;55.662;37.300;2022-11-12T06:40:40;2.05;;;0.80;;
75887;SDS011;64562;55.662;37.300;2022-11-12T06:43:07;2.42;;;1.00;;
75887;SDS011;64562;55.662;37.300;2022-11-12T06:45:33;1.95;;;0.90;;
75887;SDS011;64562;55.662;37.300;2022-11-12T06:48:02;1.88;;;0.90;;
75887;SDS011;64562;55.662;37.300;2022-11-12T06:50:29;0.85;;;0.80;;
75887;SDS011;64562;55.662;37.300;2022-11-12T06:52:59;1.38;;;0.82;;
75887;SDS011;64562;55.662;37.300;2022-11-12T06:55:26;1.25;;;0.80;;
75887;SDS011;64562;55.662;37.300;2022-11-12T06:57:53;1.42;;;1.05;;
75887;SDS011;64562;55.662;37.300;2022-11-12T07:00:19;3.15;;;1.00;;
75887;SDS011;64562;55.662;37.300;2022-11-12T07:02:46;1.67;;;0.90;;
75887;SDS011;64562;55.662;37.300;2022-11-12T07:05:12;1.00;;;0.80;;
75887;SDS011;64562;55.662;37.300;2022-11-12T07:07:39;1.30;;;0.82;;
75887;SDS011;64562;55.662;37.300;2022-11-12T07:10:08;1.40;;;0.70;;
75887;SDS011;64562;55.662;37.300;2022-11-12T07:12:34;1.25;;;0.90;;
75887;SDS011;64562;55.662;37.300;2022-11-12T07:15:01;1.80;;;1.00;;
75887;SDS011;64562;55.662;37.300;2022-11-12T07:17:28;1.35;;;0.70;;
75887;SDS011;64562;55.662;37.300;2022-11-12T07:19:54;1.10;;;0.70;;
75887;SDS011;64562;55.662;37.300;2022-11-12T07:22:21;1.20;;;0.73;;
75887;SDS011;64562;55.662;37.300;2022-11-12T07:24:47;2.22;;;0.80;;
75887;SDS011;64562;55.662;37.300;2022-11-12T07:27:16;2.50;;;0.68;;
75887;SDS011;64562;55.662;37.300;2022-11-12T07:29:42;3.47;;;0.85;;
75887;SDS011;64562;55.662;37.300;2022-11-12T07:32:09;0.90;;;0.70;;
75887;SDS011;64562;55.662;37.300;2022-11-12T07:34:35;1.30;;;0.80;;
75887;SDS011;64562;55.662;37.300;2022-11-12T07:37:02;1.40;;;0.80;;
75887;SDS011;64562;55.662;37.300;2022-11-12T07:39:29;0.93;;;0.60;;
75887;SDS011;64562;55.662;37.300;2022-11-12T07:41:55;1.38;;;0.70;;
75887;SDS011;64562;55.662;37.300;2022-11-12T07:44:23;1.55;;;0.93;;
75887;SDS011;64562;55.662;37.300;2022-11-12T07:46:50;1.17;;;0.70;;
75887;SDS011;64562;55.662;37.300;2022-11-12T07:49:17;1.17;;;0.70;;
75887;SDS011;64562;55.662;37.300;2022-11-12T07:51:43;1.77;;;0.90;;
75887;SDS011;64562;55.662;37.300;2022-11-12T07:54:10;1.20;;;0.80;;
75887;SDS011;64562;55.662;37.300;2022-11-12T07:56:37;1.08;;;0.60;;
75887;SDS011;64562;55.662;37.300;2022-11-12T07:59:03;0.70;;;0.50;;
75887;SDS011;64562;55.662;37.300;2022-11-12T08:01:33;1.10;;;0.70;;
75887;SDS011;64562;55.662;37.300;2022-11-12T08:04:01;0.80;;;0.68;;
75887;SDS011;64562;55.662;37.300;2022-11-12T08:06:28;1.60;;;0.70;;
75887;SDS011;64562;55.662;37.300;2022-11-12T08:08:56;1.00;;;0.73;;
75887;SDS011;64562;55.662;37.300;2022-11-12T08:11:23;0.80;;;0.60;;
75887;SDS011;64562;55.662;37.300;2022-11-12T08:13:50;0.68;;;0.60;;
75887;SDS011;64562;55.662;37.300;2022-11-12T08:16:17;1.15;;;0.75;;
75887;SDS011;64562;55.662;37.300;2022-11-12T08:18:45;0.90;;;0.73;;
75887;SDS011;64562;55.662;37.300;2022-11-12T08:21:12;0.80;;;0.63;;
75887;SDS011;64562;55.662;37.300;2022-11-12T08:23:39;0.68;;;0.60;;
75887;SDS011;64562;55.662;37.300;2022-11-12T08:26:06;1.42;;;0.70;;
75887;SDS011;64562;55.662;37.300;2022-11-12T08:28:34;0.88;;;0.63;;
75887;SDS011;64562;55.662;37.300;2022-11-12T08:31:01;0.95;;;0.50;;
75887;SDS011;64562;55.662;37.300;2022-11-12T08:33:28;1.08;;;0.75;;
75887;SDS011;64562;55.662;37.300;2022-11-12T08:35:56;0.82;;;0.60;;
75887;SDS011;64562;55.662;37.300;2022-11-12T08:38:23;1.17;;;0.60;;
75887;SDS011;64562;55.662;37.300;2022-11-12T08:40:50;1.00;;;0.60;;
75887;SDS011;64562;55.662;37.300;2022-11-12T08:43:16;1.00;;;0.60;;
75887;SDS011;64562;55.662;37.300;2022-11-12T08:45:43;1.38;;;0.60;;
75887;SDS011;64562;55.662;37.300;2022-11-12T08:48:11;1.33;;;0.55;;
75887;SDS011;64562;55.662;37.300;2022-11-12T08:50:38;0.65;;;0.50;;
75887;SDS011;64562;55.662;37.300;2022-11-12T08:53:07;1.67;;;0.60;;
75887;SDS011;64562;55.662;37.300;2022-11-12T08:55:34;0.95;;;0.60;;
75887;SDS011;64562;55.662;37.300;2022-11-12T08:58:01;0.95;;;0.50;;
75887;SDS011;64562;55.662;37.300;2022-11-12T09:00:29;0.47;;;0.40;;
75887;SDS011;64562;55.662;37.300;2022-11-12T09:02:57;0.57;;;0.50;;
75887;SDS011;64562;55.662;37.300;2022-11-12T09:05:24;0.80;;;0.50;;
75887;SDS011;64562;55.662;37.300;2022-11-12T09:07:55;0.80;;;0.52;;
75887;SDS011;64562;55.662;37.300;2022-11-12T09:10:23;0.52;;;0.40;;
75887;SDS011;64562;55.662;37.300;2022-11-12T09:12:50;0.93;;;0.52;;
75887;SDS011;64562;55.662;37.300;2022-11-12T09:15:17;1.15;;;0.57;;
75887;SDS011;64562;55.662;37.300;2022-11-12T09:17:43;0.82;;;0.63;;
75887;SDS011;64562;55.662;37.300;2022-11-12T09:20:10;1.95;;;0.50;;
75887;SDS011;64562;55.662;37.300;2022-11-12T09:22:37;1.55;;;0.60;;
75887;SDS011;64562;55.662;37.300;2022-11-12T09:25:03;0.82;;;0.57;;
75887;SDS011;64562;55.662;37.300;2022-11-12T09:27:31;0.80;;;0.50;;
75887;SDS011;64562;55.662;37.300;2022-11-12T09:29:58;0.95;;;0.70;;
75887;SDS011;64562;55.662;37.300;2022-11-12T09:32:25;0.93;;;0.60;;
75887;SDS011;64562;55.662;37.300;2022-11-12T09:34:51;0.80;;;0.40;;
75887;SDS011;64562;55.662;37.300;2022-11-12T09:37:18;0.93;;;0.60;;
75887;SDS011;64562;55.662;37.300;2022-11-12T09:39:45;1.40;;;0.50;;
75887;SDS011;64562;55.662;37.300;2022-11-12T09:42:12;0.90;;;0.50;;
75887;SDS011;64562;55.662;37.300;2022-11-12T09:44:42;0.60;;;0.40;;
75887;SDS011;64562;55.662;37.300;2022-11-12T09:47:11;0.77;;;0.40;;
75887;SDS011;64562;55.662;37.300;2022-11-12T09:49:42;2.20;;;0.60;;
75887;SDS011;64562;55.662;37.300;2022-11-12T09:52:13;0.70;;;0.50;;
75887;SDS011;64562;55.662;37.300;2022-11-12T09:54:41;0.93;;;0.50;;
75887;SDS011;64562;55.662;37.300;2022-11-12T09:57:09;1.23;;;0.50;;
75887;SDS011;64562;55.662;37.300;2022-11-12T09:59:37;1.25;;;0.50;;
75887;SDS011;64562;55.662;37.300;2022-11-12T10:02:13;2.13;;;0.60;;
75887;SDS011;64562;55.662;37.300;2022-11-12T10:04:59;2.35;;;0.60;;
75887;SDS011;64562;55.662;37.300;2022-11-12T10:07:35;2.75;;;0.70;;
75887;SDS011;64562;55.662;37.300;2022-11-12T10:10:07;1.08;;;0.50;;
75887;SDS011;64562;55.662;37.300;2022-11-12T10:12:38;1.67;;;0.70;;
75887;SDS011;64562;55.662;37.300;2022-11-12T10:15:12;1.50;;;0.47;;
75887;SDS011;64562;55.662;37.300;2022-11-12T10:18:03;0.82;;;0.40;;
75887;SDS011;64562;55.662;37.300;2022-11-12T10:20:34;1.08;;;0.43;;
75887;SDS011;64562;55.662;37.300;2022-11-12T10:23:05;1.35;;;0.70;;
75887;SDS011;64562;55.662;37.300;2022-11-12T10:25:35;2.58;;;0.65;;
75887;SDS011;64562;55.662;37.300;2022-11-12T10:28:06;2.28;;;0.63;;
75887;SDS011;64562;55.662;37.300;2022-11-12T10:30:37;1.58;;;0.60;;
75887;SDS011;64562;55.662;37.300;2022-11-12T10:33:09;0.98;;;0.52;;
75887;SDS011;64562;55.662;37.300;2022-11-12T10:35:37;2.67;;;0.60;;
75887;SDS011;64562;55.662;37.300;2022-11-12T10:38:04;1.33;;;0.60;;
75887;SDS011;64562;55.662;37.300;2022-11-12T10:40:32;1.58;;;0.55;;
75887;SDS011;64562;55.662;37.300;2022-11-12T10:43:00;4.85;;;0.98;;
75887;SDS011;64562;55.662;37.300;2022-11-12T10:45:27;4.20;;;0.82;;
75887;SDS011;64562;55.662;37.300;2022-11-12T10:47:53;4.18;;;0.98;;
75887;SDS011;64562;55.662;37.300;2022-11-12T10:50:22;8.05;;;1.58;;
75887;SDS011;64562;55.662;37.300;2022-11-12T10:52:54;6.75;;;1.50;;
75887;SDS011;64562;55.662;37.300;2022-11-12T10:55:22;3.67;;;1.33;;
75887;SDS011;64562;55.662;37.300;2022-11-12T11:00:34;4.88;;;1.20;;
75887;SDS011;64562;55.662;37.300;2022-11-12T11:03:01;7.53;;;1.50;;
75887;SDS011;64562;55.662;37.300;2022-11-12T11:05:31;2.78;;;0.73;;
75887;SDS011;64562;55.662;37.300;2022-11-12T11:07:58;5.50;;;1.00;;
75887;SDS011;64562;55.662;37.300;2022-11-12T11:10:26;3.92;;;0.80;;
75887;SDS011;64562;55.662;37.300;2022-11-12T11:15:59;30.27;;;6.35;;
75887;SDS011;64562;55.662;37.300;2022-11-12T11:18:26;40.17;;;11.13;;
75887;SDS011;64562;55.662;37.300;2022-11-12T11:20:57;15.10;;;5.13;;
75887;SDS011;64562;55.662;37.300;2022-11-12T11:23:25;13.43;;;3.90;;
75887;SDS011;64562;55.662;37.300;2022-11-12T11:25:54;11.05;;;3.40;;
75887;SDS011;64562;55.662;37.300;2022-11-12T11:28:24;8.20;;;2.65;;
75887;SDS011;64562;55.662;37.300;2022-11-12T11:31:00;7.88;;;2.50;;
75887;SDS011;64562;55.662;37.300;2022-11-12T11:33:30;5.78;;;1.83;;
75887;SDS011;64562;55.662;37.300;2022-11-12T11:36:05;5.70;;;1.52;;
75887;SDS011;64562;55.662;37.300;2022-11-12T11:38:37;3.05;;;1.20;;
75887;SDS011;64562;55.662;37.300;2022-11-12T11:41:09;5.28;;;1.10;;
75887;SDS011;64562;55.662;37.300;2022-11-12T11:43:43;3.88;;;1.20;;
75887;SDS011;64562;55.662;37.300;2022-11-12T11:46:15;2.95;;;0.95;;
75887;SDS011;64562;55.662;37.300;2022-11-12T11:48:48;4.68;;;0.90;;
75887;SDS011;64562;55.662;37.300;2022-11-12T11:51:23;4.10;;;0.85;;
75887;SDS011;64562;55.662;37.300;2022-11-12T11:53:56;4.45;;;0.70;;
75887;SDS011;64562;55.662;37.300;2022-11-12T11:56:28;4.88;;;0.90;;
75887;SDS011;64562;55.662;37.300;2022-11-12T11:59:04;4.22;;;0.75;;
75887;SDS011;64562;55.662;37.300;2022-11-12T12:01:37;2.53;;;0.73;;
75887;SDS011;64562;55.662;37.300;2022-11-12T12:06:56;2.47;;;0.70;;
75887;SDS011;64562;55.662;37.300;2022-11-12T12:09:28;5.65;;;0.80;;
75887;SDS011;64562;55.662;37.300;2022-11-12T12:11:59;2.90;;;0.70;;
75887;SDS011;64562;55.662;37.300;2022-11-12T12:14:33;2.17;;;0.85;;
75887;SDS011;64562;55.662;37.300;2022-11-12T12:17:03;2.90;;;0.80;;
75887;SDS011;64562;55.662;37.300;2022-11-12T12:19:38;2.38;;;0.85;;
75887;SDS011;64562;55.662;37.300;2022-11-12T12:22:09;2.72;;;0.65;;
75887;SDS011;64562;55.662;37.300;2022-11-12T12:24:41;1.73;;;0.70;;
75887;SDS011;64562;55.662;37.300;2022-11-12T12:27:12;1.42;;;0.60;;
75887;SDS011;64562;55.662;37.300;2022-11-12T12:29:41;4.05;;;0.65;;
75887;SDS011;64562;55.662;37.300;2022-11-12T12:32:10;3.65;;;0.65;;
75887;SDS011;64562;55.662;37.300;2022-11-12T12:34:40;2.85;;;0.50;;
75887;SDS011;64562;55.662;37.300;2022-11-12T12:37:12;2.25;;;0.65;;
75887;SDS011;64562;55.662;37.300;2022-11-12T12:39:43;2.28;;;0.50;;
75887;SDS011;64562;55.662;37.300;2022-11-12T12:42:12;2.35;;;0.57;;
75887;SDS011;64562;55.662;37.300;2022-11-12T12:44:43;2.30;;;0.70;;
75887;SDS011;64562;55.662;37.300;2022-11-12T12:47:27;1.90;;;0.70;;
75887;SDS011;64562;55.662;37.300;2022-11-12T12:49:54;4.45;;;0.70;;
75887;SDS011;64562;55.662;37.300;2022-11-12T12:52:24;2.80;;;0.80;;
75887;SDS011;64562;55.662;37.300;2022-11-12T12:54:54;3.22;;;0.63;;
75887;SDS011;64562;55.662;37.300;2022-11-12T12:57:28;3.28;;;0.63;;
75887;SDS011;64562;55.662;37.300;2022-11-12T13:02:36;2.55;;;0.80;;
75887;SDS011;64562;55.662;37.300;2022-11-12T13:05:03;2.95;;;0.70;;
75887;SDS011;64562;55.662;37.300;2022-11-12T13:07:39;3.13;;;0.90;;
75887;SDS011;64562;55.662;37.300;2022-11-12T13:13:02;1.83;;;0.80;;
75887;SDS011;64562;55.662;37.300;2022-11-12T13:15:39;2.92;;;0.55;;
75887;SDS011;64562;55.662;37.300;2022-11-12T13:18:07;1.60;;;0.68;;
75887;SDS011;64562;55.662;37.300;2022-11-12T13:20:39;1.85;;;0.60;;
75887;SDS011;64562;55.662;37.300;2022-11-12T13:23:11;2.72;;;0.50;;
75887;SDS011;64562;55.662;37.300;2022-11-12T13:26:41;2.13;;;0.90;;
75887;SDS011;64562;55.662;37.300;2022-11-12T13:34:44;3.05;;;1.40;;
75887;SDS011;64562;55.662;37.300;2022-11-12T13:37:15;1.58;;;0.60;;
75887;SDS011;64562;55.662;37.300;2022-11-12T13:39:45;1.08;;;0.68;;
75887;SDS011;64562;55.662;37.300;2022-11-12T13:42:12;1.73;;;0.63;;
75887;SDS011;64562;55.662;37.300;2022-11-12T13:44:57;0.75;;;0.52;;
75887;SDS011;64562;55.662;37.300;2022-11-12T13:47:24;2.55;;;0.80;;
75887;SDS011;64562;55.662;37.300;2022-11-12T13:49:53;1.75;;;0.70;;
75887;SDS011;64562;55.662;37.300;2022-11-12T13:52:21;1.48;;;0.50;;
75887;SDS011;64562;55.662;37.300;2022-11-12T13:54:53;1.50;;;0.70;;
75887;SDS011;64562;55.662;37.300;2022-11-12T13:57:27;5.43;;;0.60;;
75887;SDS011;64562;55.662;37.300;2022-11-12T14:00:08;2.55;;;0.60;;
75887;SDS011;64562;55.662;37.300;2022-11-12T14:02:35;3.67;;;0.80;;
75887;SDS011;64562;55.662;37.300;2022-11-12T14:05:02;1.50;;;0.70;;
75887;SDS011;64562;55.662;37.300;2022-11-12T14:07:38;2.05;;;0.80;;
75887;SDS011;64562;55.662;37.300;2022-11-12T14:10:09;1.25;;;0.80;;
75887;SDS011;64562;55.662;37.300;2022-11-12T14:12:44;3.75;;;0.73;;
75887;SDS011;64562;55.662;37.300;2022-11-12T14:15:16;1.67;;;0.55;;
75887;SDS011;64562;55.662;37.300;2022-11-12T14:17:46;2.55;;;0.85;;
75887;SDS011;64562;55.662;37.300;2022-11-12T14:20:24;1.55;;;0.52;;
75887;SDS011;64562;55.662;37.300;2022-11-12T14:22:53;1.63;;;0.60;;
75887;SDS011;64562;55.662;37.300;2022-11-12T14:25:22;1.23;;;0.55;;
75887;SDS011;64562;55.662;37.300;2022-11-12T14:27:49;1.13;;;0.60;;
75887;SDS011;64562;55.662;37.300;2022-11-12T14:30:17;1.88;;;0.77;;
75887;SDS011;64562;55.662;37.300;2022-11-12T14:32:45;2.47;;;0.75;;
75887;SDS011;64562;55.662;37.300;2022-11-12T14:37:57;1.23;;;0.57;;
75887;SDS011;64562;55.662;37.300;2022-11-12T14:40:26;1.98;;;0.50;;
75887;SDS011;64562;55.662;37.300;2022-11-12T14:42:53;1.50;;;0.80;;
75887;SDS011;64562;55.662;37.300;2022-11-12T14:45:23;1.63;;;0.50;;
75887;SDS011;64562;55.662;37.300;2022-11-12T14:47:50;1.52;;;0.70;;
75887;SDS011;64562;55.662;37.300;2022-11-12T14:50:18;2.00;;;0.60;;
75887;SDS011;64562;55.662;37.300;2022-11-12T14:52:46;1.17;;;0.60;;
75887;SDS011;64562;55.662;37.300;2022-11-12T14:55:14;2.22;;;0.60;;
75887;SDS011;64562;55.662;37.300;2022-11-12T14:57:44;1.55;;;0.70;;
75887;SDS011;64562;55.662;37.300;2022-11-12T15:00:17;1.52;;;0.47;;
75887;SDS011;64562;55.662;37.300;2022-11-12T15:02:44;2.25;;;0.60;;
75887;SDS011;64562;55.662;37.300;2022-11-12T15:05:12;1.85;;;0.60;;